Time;durP1;ratioP1;P1;durP2;ratioP2;P2;SDS_P1;SDS_P2;PMS_P1;PMS_P2;Temp;Humidity;BMP_temperature;BMP_pressure;BME280_temperature;BME280_humidity;BME280_pressure;Samples;Min_cycle;Max_cycle;Signal;HPM_P1;HPM_P2
2023/03/08 00:01:13;;;;;;;8.38;3.55;;;;;;;3.24;62.85;93873.44;5045548;28;20501;-78
2023/03/08 00:03:39;;;;;;;6.47;3.70;;;;;;;3.14;61.81;93870.66;5042499;28;20040;-79
2023/03/08 00:06:06;;;;;;;6.88;3.90;;;;;;;2.96;61.15;93841.97;5045800;28;20116;-77
2023/03/08 00:08:31;;;;;;;7.25;3.92;;;;;;;3.87;61.73;93994.91;5047334;28;20044;-77
2023/03/08 00:10:57;;;;;;;9.00;4.20;;;;;;;2.98;62.38;93878.59;5047171;28;20029;-77
2023/03/08 00:13:22;;;;;;;6.63;3.45;;;;;;;2.99;62.62;93887.94;5044504;28;21184;-78
2023/03/08 00:15:48;;;;;;;6.03;3.45;;;;;;;3.81;62.95;93998.72;5047667;28;20028;-78
2023/03/08 00:18:13;;;;;;;5.80;3.20;;;;;;;3.04;62.08;93879.94;5047760;28;20086;-77
2023/03/08 00:20:39;;;;;;;5.45;3.35;;;;;;;3.04;61.95;93885.88;5047345;28;20029;-77
2023/03/08 00:23:04;;;;;;;7.22;3.85;;;;;;;3.28;62.94;93915.91;5043216;28;20570;-78
2023/03/08 00:25:30;;;;;;;5.70;3.40;;;;;;;3.79;63.01;93988.56;5047167;28;20477;-78
2023/03/08 00:27:56;;;;;;;5.65;3.30;;;;;;;3.00;62.71;93878.50;5045781;28;20051;-77
2023/03/08 00:30:21;;;;;;;7.50;4.32;;;;;;;3.02;63.11;93881.78;5046545;28;20426;-77
2023/03/08 00:32:47;;;;;;;6.65;4.10;;;;;;;3.18;63.38;93915.75;5047654;28;20041;-78
2023/03/08 00:35:12;;;;;;;6.50;4.00;;;;;;;3.05;63.75;93912.38;5048163;28;20075;-77
2023/03/08 00:37:38;;;;;;;5.60;3.50;;;;;;;2.67;64.24;93857.59;5046087;28;20439;-77
2023/03/08 00:40:04;;;;;;;5.68;3.65;;;;;;;2.79;63.82;93878.22;5046799;28;20075;-77
2023/03/08 00:42:30;;;;;;;5.13;3.25;;;;;;;2.66;63.21;93873.88;5047539;28;20040;-77
2023/03/08 00:44:55;;;;;;;7.00;3.80;;;;;;;3.46;64.32;93998.59;5043701;28;20029;-77
2023/03/08 00:47:21;;;;;;;10.45;5.18;;;;;;;2.66;64.85;93876.44;5041632;28;20565;-78
2023/03/08 00:49:46;;;;;;;12.13;6.30;;;;;;;2.75;64.91;93876.75;5047424;28;20032;-79
2023/03/08 00:52:12;;;;;;;12.48;5.85;;;;;;;3.48;64.69;93984.72;5046277;28;20415;-78
2023/03/08 00:54:37;;;;;;;11.25;5.10;;;;;;;2.78;64.36;93872.25;5046154;28;20036;-77
2023/03/08 00:57:03;;;;;;;9.85;4.70;;;;;;;2.75;64.73;93867.31;5046707;28;20403;-78
2023/03/08 00:59:28;;;;;;;8.35;4.55;;;;;;;2.66;64.33;93866.19;5030916;28;20517;-78
2023/03/08 01:01:54;;;;;;;9.88;4.70;;;;;;;2.48;64.48;93857.19;5031150;28;20577;-78
2023/03/08 01:04:19;;;;;;;9.88;5.70;;;;;;;2.64;64.50;93872.34;5032836;28;20033;-78
2023/03/08 01:06:45;;;;;;;6.68;4.20;;;;;;;2.71;64.27;93877.91;5048536;28;20109;-77
2023/03/08 01:09:10;;;;;;;5.50;3.45;;;;;;;2.73;64.47;93884.56;5051123;28;20025;-78
2023/03/08 01:11:36;;;;;;;5.97;2.97;;;;;;;3.52;64.08;93993.03;5050629;28;20033;-78
2023/03/08 01:14:02;;;;;;;4.57;2.90;;;;;;;3.47;64.28;93998.47;5044031;28;20029;-78
2023/03/08 01:16:29;;;;;;;5.88;3.00;;;;;;;2.89;63.64;93915.13;5049877;28;20279;-78
2023/03/08 01:18:55;;;;;;;5.28;3.20;;;;;;;3.32;64.32;94002.09;5037259;28;20026;-78
2023/03/08 01:21:21;;;;;;;5.75;3.88;;;;;;;2.56;64.74;93888.22;5030067;28;20029;-78
2023/03/08 01:23:46;;;;;;;12.10;5.68;;;;;;;3.34;64.93;94000.22;5036682;28;20419;-78
2023/03/08 01:26:13;;;;;;;7.63;4.03;;;;;;;2.75;64.75;93926.31;5049579;28;20372;-78
2023/03/08 01:28:39;;;;;;;7.18;3.55;;;;;;;2.35;64.90;93871.72;5045458;28;20041;-78
2023/03/08 01:31:06;;;;;;;5.50;2.88;;;;;;;3.01;64.78;93977.63;5031731;28;20033;-78
2023/03/08 01:33:32;;;;;;;5.90;3.35;;;;;;;3.14;65.57;93989.53;5029854;28;20163;-78
2023/03/08 01:35:58;;;;;;;5.43;3.10;;;;;;;2.74;65.13;93909.28;5030940;28;20492;-78
2023/03/08 01:38:23;;;;;;;4.93;3.30;;;;;;;2.54;65.22;93877.28;5038453;28;20045;-78
2023/03/08 01:40:54;;;;;;;6.22;3.20;;;;;;;2.80;65.00;93890.91;5030504;28;20425;-79
2023/03/08 01:43:27;;;;;;;4.38;3.30;;;;;;;2.92;64.14;93881.56;5030650;28;20413;-78
2023/03/08 01:46:14;;;;;;;5.55;3.45;;;;;;;3.71;64.29;93984.88;5029344;28;20029;-78
2023/03/08 01:48:46;;;;;;;5.55;3.20;;;;;;;3.69;63.89;93989.31;5042910;28;20048;-80
2023/03/08 01:51:12;;;;;;;5.95;3.33;;;;;;;3.43;63.85;93922.59;5047888;28;20518;-77
2023/03/08 01:53:37;;;;;;;6.38;3.65;;;;;;;3.33;63.11;93906.16;5049620;28;20090;-78
2023/03/08 01:56:05;;;;;;;6.35;3.33;;;;;;;3.27;62.65;93886.06;5046755;28;20503;-77
2023/03/08 01:58:31;;;;;;;6.53;3.47;;;;;;;3.85;62.59;93951.34;5029010;28;20520;-77
2023/03/08 02:00:56;;;;;;;4.90;3.42;;;;;;;3.43;61.99;93875.56;5040460;28;20033;-77
2023/03/08 02:03:22;;;;;;;6.43;3.05;;;;;;;4.38;61.46;93989.59;5030463;28;20040;-79
2023/03/08 02:05:47;;;;;;;5.60;3.50;;;;;;;3.60;61.72;93877.75;5030540;28;20029;-78
2023/03/08 02:08:13;;;;;;;7.32;3.50;;;;;;;3.53;61.90;93882.47;5029847;28;20030;-77
2023/03/08 02:10:38;;;;;;;6.05;4.10;;;;;;;3.33;62.06;93898.47;5049976;28;20037;-77
2023/03/08 02:13:04;;;;;;;9.45;5.43;;;;;;;2.88;63.02;93862.19;5022897;28;20408;-77
2023/03/08 02:15:30;;;;;;;14.65;5.95;;;;;;;2.77;63.76;93874.91;5016444;28;20125;-78
2023/03/08 02:17:55;;;;;;;9.10;5.30;;;;;;;2.93;63.60;93908.88;5030382;28;20042;-77
2023/03/08 02:20:34;;;;;;;10.40;5.30;;;;;;;3.37;64.42;94005.16;5050478;28;20416;-77
2023/03/08 02:23:13;;;;;;;7.55;4.45;;;;;;;3.45;64.59;94002.88;5016680;28;20036;-78
2023/03/08 02:25:38;;;;;;;7.70;4.78;;;;;;;3.41;64.54;94000.66;5030329;28;20613;-79
2023/03/08 02:28:04;;;;;;;8.07;4.53;;;;;;;3.35;62.92;94001.88;5049340;28;20060;-78
2023/03/08 02:30:31;;;;;;;8.98;4.97;;;;;;;2.53;63.84;93911.50;5049927;28;20033;-77
2023/03/08 02:32:57;;;;;;;8.27;4.53;;;;;;;2.40;64.41;93916.63;5036183;28;20029;-77
2023/03/08 02:35:22;;;;;;;6.22;4.00;;;;;;;2.32;65.04;93892.44;5012540;28;20052;-79
2023/03/08 02:37:48;;;;;;;7.50;4.38;;;;;;;2.86;65.41;93964.09;5041527;28;20057;-77
2023/03/08 02:40:13;;;;;;;5.75;3.75;;;;;;;2.47;65.71;93902.47;5029972;28;20060;-77
2023/03/08 02:42:39;;;;;;;6.90;4.05;;;;;;;2.22;64.72;93887.06;5030335;28;20041;-78
2023/03/08 02:45:05;;;;;;;9.10;4.10;;;;;;;2.16;64.57;93893.41;5029142;28;20029;-77
2023/03/08 02:47:31;;;;;;;17.17;8.02;;;;;;;2.83;66.16;94018.16;5030305;28;20033;-77
2023/03/08 02:49:56;;;;;;;12.80;7.22;;;;;;;2.22;66.31;93935.75;5029778;28;20026;-77
2023/03/08 02:52:22;;;;;;;10.88;6.38;;;;;;;2.10;66.63;93922.00;5047706;28;20037;-77
2023/03/08 02:54:47;;;;;;;14.25;9.65;;;;;;;2.80;66.54;94032.00;5052735;28;20039;-77
2023/03/08 02:57:12;;;;;;;9.07;5.57;;;;;;;2.04;67.28;93919.84;5053121;28;20040;-77
2023/03/08 02:59:38;;;;;;;7.95;5.28;;;;;;;2.00;67.55;93903.00;5047032;28;20049;-77
2023/03/08 03:02:04;;;;;;;6.28;4.10;;;;;;;2.16;66.70;93923.34;5033856;28;20511;-78
2023/03/08 03:04:30;;;;;;;8.07;4.90;;;;;;;2.34;66.53;93926.44;5045549;28;20036;-77
2023/03/08 03:06:56;;;;;;;8.85;4.03;;;;;;;3.12;66.37;94029.91;5053432;28;20061;-77
2023/03/08 03:09:21;;;;;;;7.95;4.50;;;;;;;2.05;65.89;93895.03;5049160;28;20064;-78
2023/03/08 03:11:47;;;;;;;10.02;4.25;;;;;;;2.03;66.47;93923.28;5033659;28;20041;-78
2023/03/08 03:14:12;;;;;;;7.95;4.63;;;;;;;2.08;67.34;93946.88;5050833;28;20031;-78
2023/03/08 03:16:38;;;;;;;13.65;7.25;;;;;;;2.61;67.51;94042.63;5047600;28;20064;-78
2023/03/08 03:19:03;;;;;;;9.38;6.55;;;;;;;2.03;67.07;93948.91;5033250;28;20029;-78
2023/03/08 03:21:29;;;;;;;9.55;6.15;;;;;;;1.69;66.89;93910.06;5034738;28;20039;-78
2023/03/08 03:23:55;;;;;;;8.98;5.55;;;;;;;1.86;66.88;93947.41;5049943;28;20380;-78
2023/03/08 03:26:21;;;;;;;8.68;6.47;;;;;;;2.61;67.17;94040.06;5031702;28;20531;-79
2023/03/08 03:28:46;;;;;;;7.95;5.05;;;;;;;2.23;67.20;93997.19;5037195;28;20111;-79
2023/03/08 03:31:17;;;;;;;8.75;5.10;;;;;;;2.13;67.79;94002.97;5046110;28;20040;-78
2023/03/08 03:33:43;;;;;;;8.80;4.93;;;;;;;2.37;67.78;94049.31;5049526;28;20049;-78
2023/03/08 03:36:10;;;;;;;8.98;5.80;;;;;;;1.75;68.12;93949.81;5047233;28;20066;-78
2023/03/08 03:38:36;;;;;;;7.50;4.60;;;;;;;1.71;68.42;93951.75;5029361;28;20312;-78
2023/03/08 03:41:02;;;;;;;9.07;4.90;;;;;;;2.28;69.15;94050.69;5049048;28;20029;-78
2023/03/08 03:43:28;;;;;;;7.55;4.63;;;;;;;1.14;68.83;93882.75;5048185;28;20040;-78
2023/03/08 03:45:55;;;;;;;7.20;4.43;;;;;;;2.19;69.22;94034.16;5048706;28;20418;-78
2023/03/08 03:48:21;;;;;;;7.25;4.32;;;;;;;2.06;70.21;94002.53;5040159;28;20454;-80
2023/03/08 03:50:55;;;;;;;7.35;4.13;;;;;;;2.44;69.40;94055.69;5047700;28;20044;-77
2023/03/08 03:53:20;;;;;;;9.10;4.43;;;;;;;1.68;68.78;93943.47;5036627;28;20025;-78
2023/03/08 03:55:46;;;;;;;7.78;4.32;;;;;;;2.52;69.28;94065.47;5045401;28;20035;-77
2023/03/08 03:58:11;;;;;;;12.15;6.68;;;;;;;2.47;68.82;94091.38;5044948;28;20056;-78
2023/03/08 04:00:37;;;;;;;10.20;4.95;;;;;;;2.28;69.02;94072.94;5047956;28;20055;-78
2023/03/08 04:03:02;;;;;;;8.20;4.47;;;;;;;2.26;68.98;94077.34;5048882;28;20060;-78
2023/03/08 04:05:28;;;;;;;6.22;3.90;;;;;;;1.63;69.00;93956.53;5047198;28;20040;-78
2023/03/08 04:07:53;;;;;;;7.57;4.05;;;;;;;1.84;68.44;93958.66;5043109;28;20488;-78
2023/03/08 04:10:19;;;;;;;8.90;4.55;;;;;;;2.38;68.56;94026.13;5013424;28;20079;-78
2023/03/08 04:12:48;;;;;;;9.90;5.80;;;;;;;1.81;67.94;93925.56;5028418;28;20034;-78
2023/03/08 04:15:13;;;;;;;8.77;4.47;;;;;;;2.07;67.58;93977.75;5041985;28;20047;-79
2023/03/08 04:17:39;;;;;;;7.55;4.03;;;;;;;1.52;67.56;93918.78;5038099;28;20041;-79
2023/03/08 04:20:05;;;;;;;31.75;16.70;;;;;;;1.54;67.83;93913.59;5041531;28;20075;-76
2023/03/08 04:22:31;;;;;;;29.25;15.63;;;;;;;2.39;68.04;94048.28;5037236;28;20041;-78
2023/03/08 04:24:56;;;;;;;36.28;20.15;;;;;;;2.55;68.05;94058.41;5044618;28;20068;-77
2023/03/08 04:27:22;;;;;;;32.42;18.33;;;;;;;2.21;68.15;94040.03;5045014;28;20629;-78
2023/03/08 04:29:48;;;;;;;24.33;14.68;;;;;;;2.40;67.62;94077.31;5027339;28;20102;-78
2023/03/08 04:32:13;;;;;;;22.05;12.60;;;;;;;1.44;68.44;93958.56;5041237;28;20033;-76
2023/03/08 04:34:38;;;;;;;21.80;12.45;;;;;;;2.06;68.85;94055.50;5042115;28;20044;-76
2023/03/08 04:37:04;;;;;;;14.20;9.13;;;;;;;1.40;69.13;93944.34;5029266;28;20025;-76
2023/03/08 04:39:30;;;;;;;8.57;5.35;;;;;;;2.13;68.77;94065.28;5043708;28;20103;-76
2023/03/08 04:41:55;;;;;;;8.77;5.82;;;;;;;2.24;68.74;94069.75;5046751;28;20037;-76
2023/03/08 04:44:21;;;;;;;7.85;4.50;;;;;;;1.43;68.34;93933.91;5046852;28;20483;-77
2023/03/08 04:46:46;;;;;;;10.05;5.88;;;;;;;2.22;69.03;94067.28;5046034;28;20120;-76
2023/03/08 04:49:12;;;;;;;19.90;9.02;;;;;;;1.19;69.16;93924.22;5047922;28;20052;-76
2023/03/08 04:51:37;;;;;;;15.70;8.30;;;;;;;1.38;68.92;93936.72;5046653;28;20032;-76
2023/03/08 04:54:03;;;;;;;14.73;7.13;;;;;;;1.51;69.38;93959.84;5046994;28;20108;-77
2023/03/08 04:56:29;;;;;;;22.90;9.57;;;;;;;1.46;70.00;93944.78;5045641;28;20037;-76
2023/03/08 04:58:54;;;;;;;17.48;9.15;;;;;;;1.68;69.32;93975.00;5048809;28;20053;-76
2023/03/08 05:01:23;;;;;;;9.02;5.68;;;;;;;2.37;69.55;94074.97;5043136;28;20036;-77
2023/03/08 05:03:51;;;;;;;7.55;4.22;;;;;;;2.41;69.22;94066.16;5030428;28;20075;-77
2023/03/08 05:06:17;;;;;;;7.13;4.70;;;;;;;1.88;69.39;93983.19;5023710;28;20115;-76
2023/03/08 05:08:42;;;;;;;9.43;5.70;;;;;;;1.69;68.76;93968.13;5010818;28;20128;-76
2023/03/08 05:11:08;;;;;;;9.82;5.80;;;;;;;1.90;69.67;93991.63;5046180;28;20040;-76
2023/03/08 05:13:35;;;;;;;40.90;14.30;;;;;;;2.34;70.20;94070.84;5013324;28;20507;-76
2023/03/08 05:16:02;;;;;;;25.27;10.30;;;;;;;1.83;70.39;93975.78;5028971;28;20495;-76
2023/03/08 05:18:27;;;;;;;32.63;12.70;;;;;;;1.71;70.24;93979.94;5041360;28;20029;-76
2023/03/08 05:20:57;;;;;;;43.33;16.10;;;;;;;2.56;69.80;94105.38;5046524;28;20036;-76
2023/03/08 05:23:23;;;;;;;33.70;14.57;;;;;;;2.36;69.55;94101.50;5024920;28;20038;-77
2023/03/08 05:25:56;;;;;;;26.77;13.23;;;;;;;1.65;70.49;94000.78;5044329;28;20418;-77
2023/03/08 05:28:22;;;;;;;38.33;15.85;;;;;;;1.62;70.22;93977.94;5043491;28;20807;-76
2023/03/08 05:30:48;;;;;;;34.03;15.35;;;;;;;2.50;70.58;94116.84;5044597;28;20068;-77
2023/03/08 05:33:15;;;;;;;36.38;14.95;;;;;;;2.54;70.82;94133.69;5049397;28;20446;-78
2023/03/08 05:35:40;;;;;;;46.78;21.05;;;;;;;1.92;70.18;93997.44;5044939;28;20040;-79
2023/03/08 05:38:06;;;;;;;53.15;24.40;;;;;;;2.09;69.66;94011.75;5029539;28;20053;-77
2023/03/08 05:40:31;;;;;;;52.58;21.65;;;;;;;1.99;70.35;94001.28;5033924;28;20407;-77
2023/03/08 05:42:57;;;;;;;48.33;23.77;;;;;;;2.94;70.33;94146.56;5044957;28;20036;-77
2023/03/08 05:45:22;;;;;;;37.35;18.33;;;;;;;2.32;69.25;94033.41;5049732;28;20025;-77
2023/03/08 05:47:48;;;;;;;30.25;15.07;;;;;;;3.05;69.27;94153.59;5045016;28;20044;-77
2023/03/08 05:50:13;;;;;;;35.60;15.15;;;;;;;3.03;70.03;94163.13;5030715;28;20076;-77
2023/03/08 05:52:41;;;;;;;17.65;9.77;;;;;;;3.23;70.02;94151.56;5049378;28;20041;-78
2023/03/08 05:55:07;;;;;;;17.92;9.27;;;;;;;3.23;69.78;94147.28;5038484;28;20041;-78
2023/03/08 05:57:32;;;;;;;16.08;8.30;;;;;;;2.57;70.36;94041.19;5042023;28;20151;-75
2023/03/08 05:59:58;;;;;;;13.88;7.43;;;;;;;2.59;69.65;94029.09;5045942;28;20049;-77
2023/03/08 06:02:24;;;;;;;12.07;6.35;;;;;;;2.70;70.26;94033.50;5045052;28;20494;-77
2023/03/08 06:04:49;;;;;;;11.15;6.20;;;;;;;3.66;70.16;94159.88;5045012;28;20040;-74
2023/03/08 06:07:15;;;;;;;12.73;7.18;;;;;;;3.64;70.12;94148.88;5044769;28;20061;-75
2023/03/08 06:09:40;;;;;;;10.10;6.32;;;;;;;3.24;69.63;94042.84;5046545;28;20067;-76
2023/03/08 06:12:06;;;;;;;12.52;6.40;;;;;;;4.98;67.34;94168.00;5045893;28;20033;-76
2023/03/08 06:14:31;;;;;;;14.07;8.35;;;;;;;6.31;62.23;94171.09;5045787;28;20024;-76
2023/03/08 06:16:57;;;;;;;15.02;8.82;;;;;;;7.05;56.72;94050.00;5038570;28;20049;-75
2023/03/08 06:19:22;;;;;;;18.70;8.75;;;;;;;9.12;51.15;94076.44;5043050;28;20056;-76
2023/03/08 06:21:48;;;;;;;15.52;9.20;;;;;;;11.61;46.80;94137.25;5046089;28;20045;-76
2023/03/08 06:24:13;;;;;;;10.73;6.30;;;;;;;13.51;41.25;94164.19;5044863;28;20029;-78
2023/03/08 06:26:39;;;;;;;12.45;6.90;;;;;;;14.53;37.83;94065.38;5047022;28;20123;-78
2023/03/08 06:29:04;;;;;;;11.57;6.18;;;;;;;15.83;35.21;94078.69;5046251;28;20111;-78
2023/03/08 06:31:30;;;;;;;13.73;7.18;;;;;;;17.16;33.85;94164.47;5048795;28;20845;-77
2023/03/08 06:33:55;;;;;;;18.00;9.60;;;;;;;17.93;32.07;94100.09;5046399;28;20032;-77
2023/03/08 06:36:21;;;;;;;19.88;10.00;;;;;;;18.75;30.44;94105.56;5043569;28;20028;-77
2023/03/08 06:38:46;;;;;;;14.85;8.48;;;;;;;17.27;33.06;94173.69;5046393;28;20422;-77
2023/03/08 06:41:13;;;;;;;13.98;9.18;;;;;;;15.30;35.47;94082.97;5047325;28;20049;-77
2023/03/08 06:43:38;;;;;;;10.50;7.07;;;;;;;14.44;36.27;94061.94;5047804;28;20038;-77
2023/03/08 06:46:05;;;;;;;11.95;7.07;;;;;;;14.04;37.88;94149.03;5042409;28;20025;-76
2023/03/08 06:48:30;;;;;;;9.85;6.93;;;;;;;12.84;40.08;94083.34;5021533;28;20041;-77
2023/03/08 06:50:56;;;;;;;13.57;7.20;;;;;;;12.22;41.12;94087.94;5039084;28;20116;-78
2023/03/08 06:53:22;;;;;;;7.95;6.60;;;;;;;13.49;40.10;94166.16;5044726;28;20404;-77
2023/03/08 06:55:48;;;;;;;8.60;5.30;;;;;;;16.76;34.32;94166.56;5041675;28;20469;-76
2023/03/08 06:58:13;;;;;;;8.77;5.80;;;;;;;17.33;31.68;94024.19;5021519;28;20491;-78
2023/03/08 07:00:39;;;;;;;10.25;5.95;;;;;;;14.70;36.10;94090.44;5044711;28;20037;-78
2023/03/08 07:03:04;;;;;;;8.13;5.50;;;;;;;14.00;38.28;94088.50;5048604;28;20499;-77
2023/03/08 07:05:30;;;;;;;8.23;5.32;;;;;;;15.59;36.08;94187.78;5050017;28;20107;-76
2023/03/08 07:07:55;;;;;;;7.15;5.07;;;;;;;14.82;37.41;94199.88;5049328;28;20396;-76
2023/03/08 07:10:21;;;;;;;8.80;4.25;;;;;;;14.04;39.20;94211.69;5044284;28;20036;-76
2023/03/08 07:12:47;;;;;;;8.20;5.00;;;;;;;12.69;41.87;94182.13;5047540;28;20084;-76
2023/03/08 07:15:17;;;;;;;7.38;4.65;;;;;;;12.82;41.92;94204.34;5045147;28;20037;-78
2023/03/08 07:17:46;;;;;;;11.40;5.80;;;;;;;12.32;42.88;94215.44;5047274;28;20517;-77
2023/03/08 07:20:12;;;;;;;10.57;5.28;;;;;;;12.01;43.77;94221.06;5050839;28;20475;-80
2023/03/08 07:22:40;;;;;;;14.10;6.32;;;;;;;12.01;43.48;94188.03;5052654;28;20033;-77
2023/03/08 07:25:07;;;;;;;8.52;5.45;;;;;;;11.57;43.06;94106.50;5053199;28;20044;-78
2023/03/08 07:27:32;;;;;;;7.50;4.38;;;;;;;10.95;44.37;94119.41;5053393;28;20039;-78
2023/03/08 07:29:58;;;;;;;11.90;4.57;;;;;;;10.89;45.07;94145.94;5052834;28;20029;-78
2023/03/08 07:32:27;;;;;;;10.18;4.53;;;;;;;10.58;46.11;94159.22;5053419;28;20105;-78
2023/03/08 07:34:53;;;;;;;8.60;4.82;;;;;;;10.02;46.74;94128.91;5052769;28;20021;-78
2023/03/08 07:37:18;;;;;;;6.55;4.07;;;;;;;9.95;48.20;94201.28;5053032;28;20635;-78
2023/03/08 07:39:44;;;;;;;10.13;4.68;;;;;;;9.50;48.38;94124.06;5052319;28;20503;-78
2023/03/08 07:42:10;;;;;;;12.40;4.32;;;;;;;9.39;48.89;94132.78;5051850;28;20033;-78
2023/03/08 07:44:38;;;;;;;8.43;4.97;;;;;;;9.74;48.84;94149.56;5051726;28;20029;-79
2023/03/08 07:47:06;;;;;;;9.77;5.00;;;;;;;9.54;48.71;94117.63;5050773;28;20037;-78
2023/03/08 07:49:32;;;;;;;11.55;4.68;;;;;;;10.17;49.03;94223.53;5035118;28;20041;-79
2023/03/08 07:51:58;;;;;;;8.45;5.10;;;;;;;9.46;48.71;94099.34;5052871;28;20422;-77
2023/03/08 07:54:23;;;;;;;8.80;5.00;;;;;;;9.64;49.26;94128.03;5052878;28;20090;-79
2023/03/08 07:56:50;;;;;;;11.23;5.75;;;;;;;9.73;49.37;94147.94;5052772;28;20032;-77
2023/03/08 07:59:16;;;;;;;9.73;5.20;;;;;;;9.57;48.83;94104.41;5052669;28;20045;-78
2023/03/08 08:01:41;;;;;;;13.38;4.80;;;;;;;10.29;48.07;94118.59;5052621;28;20419;-78
2023/03/08 08:04:07;;;;;;;7.40;4.68;;;;;;;10.78;46.83;94144.38;5035269;28;20025;-78
2023/03/08 08:06:34;;;;;;;9.98;4.57;;;;;;;10.43;47.90;94137.28;5051115;28;20021;-77
2023/03/08 08:09:00;;;;;;;9.27;5.32;;;;;;;10.86;47.94;94232.78;5052296;28;20407;-78
2023/03/08 08:11:25;;;;;;;14.40;5.13;;;;;;;9.89;48.27;94118.00;5052281;28;20032;-78
2023/03/08 08:13:51;;;;;;;12.00;5.22;;;;;;;9.81;48.58;94131.69;5051323;28;20453;-78
2023/03/08 08:16:16;;;;;;;13.10;5.50;;;;;;;9.85;48.73;94135.63;5052788;28;21451;-78
2023/03/08 08:18:42;;;;;;;10.32;5.30;;;;;;;10.26;49.04;94234.88;5034939;28;20407;-78
2023/03/08 08:21:11;;;;;;;13.10;5.03;;;;;;;10.10;49.15;94232.81;5052216;28;20021;-78
2023/03/08 08:23:37;;;;;;;10.68;5.43;;;;;;;9.79;48.89;94136.19;5051342;28;20039;-78
2023/03/08 08:26:06;;;;;;;9.93;5.85;;;;;;;10.21;48.44;94152.22;5052036;28;20025;-78
2023/03/08 08:28:32;;;;;;;11.65;5.68;;;;;;;10.33;48.07;94134.72;5052015;28;20170;-78
2023/03/08 08:31:05;;;;;;;10.32;5.20;;;;;;;10.68;47.76;94113.25;5051770;28;20124;-78
2023/03/08 08:33:30;;;;;;;9.82;5.43;;;;;;;10.87;46.61;94117.53;5050668;28;20037;-78
2023/03/08 08:35:56;;;;;;;10.15;5.22;;;;;;;11.81;45.87;94230.75;5051946;28;20083;-79
2023/03/08 08:38:22;;;;;;;11.27;4.93;;;;;;;11.48;45.85;94131.63;5051897;28;20059;-79
2023/03/08 08:40:47;;;;;;;10.10;5.40;;;;;;;11.75;44.71;94122.06;5051934;28;20040;-78
2023/03/08 08:43:13;;;;;;;10.00;5.28;;;;;;;11.68;44.30;94145.28;5051889;28;20120;-78
2023/03/08 08:45:47;;;;;;;10.52;4.88;;;;;;;12.33;44.76;94223.09;5051843;28;20021;-78
2023/03/08 08:48:13;;;;;;;11.57;4.93;;;;;;;12.32;44.51;94229.28;5051775;28;20111;-78
2023/03/08 08:50:41;;;;;;;12.85;5.10;;;;;;;11.76;44.77;94128.94;5050580;28;20586;-78
2023/03/08 08:53:07;;;;;;;12.27;5.43;;;;;;;12.35;44.87;94222.94;5051623;28;20046;-78
2023/03/08 08:55:33;;;;;;;8.50;5.10;;;;;;;11.56;45.04;94117.84;5051650;28;20086;-79
2023/03/08 08:57:59;;;;;;;9.30;5.18;;;;;;;12.00;45.25;94193.38;5051287;28;20033;-78
2023/03/08 09:00:25;;;;;;;9.50;5.60;;;;;;;11.27;45.59;94124.09;5051485;28;20029;-78
2023/03/08 09:02:50;;;;;;;11.73;5.78;;;;;;;11.31;45.82;94120.25;5051272;28;20094;-78
2023/03/08 09:05:16;;;;;;;11.07;5.90;;;;;;;11.25;45.87;94105.22;5051214;28;20055;-78
2023/03/08 09:07:41;;;;;;;10.95;5.60;;;;;;;11.30;46.18;94143.78;5051304;28;20480;-78
2023/03/08 09:10:08;;;;;;;10.30;5.45;;;;;;;11.75;46.06;94224.34;5051077;28;20549;-78
2023/03/08 09:12:33;;;;;;;10.90;4.82;;;;;;;11.97;45.90;94230.94;5051548;28;20037;-78
2023/03/08 09:14:59;;;;;;;8.45;4.35;;;;;;;11.16;45.93;94121.72;5051467;28;20167;-78
2023/03/08 09:17:24;;;;;;;11.23;5.82;;;;;;;11.33;45.75;94118.31;5050951;28;20041;-78
2023/03/08 09:19:50;;;;;;;9.20;4.80;;;;;;;11.34;45.13;94113.94;5033211;28;20025;-78
2023/03/08 09:22:16;;;;;;;9.65;4.70;;;;;;;12.02;44.95;94225.28;5051269;28;20034;-78
2023/03/08 09:24:41;;;;;;;10.75;4.90;;;;;;;12.08;45.40;94216.88;5049942;28;20021;-79
2023/03/08 09:27:07;;;;;;;7.25;4.55;;;;;;;11.82;45.38;94193.38;5051201;28;20029;-78
2023/03/08 09:29:33;;;;;;;7.43;4.95;;;;;;;11.45;45.19;94128.47;5051008;28;20029;-78
2023/03/08 09:31:59;;;;;;;5.80;4.13;;;;;;;11.31;45.37;94106.41;5050959;28;20033;-77
2023/03/08 09:34:25;;;;;;;8.77;4.90;;;;;;;11.89;45.67;94223.06;5051029;28;20502;-78
2023/03/08 09:36:51;;;;;;;7.93;4.80;;;;;;;11.89;45.58;94219.66;5049754;28;20494;-78
2023/03/08 09:39:16;;;;;;;9.05;4.57;;;;;;;11.35;45.72;94115.56;5050873;28;20104;-77
2023/03/08 09:41:52;;;;;;;9.10;4.68;;;;;;;11.46;44.83;94102.34;5050747;28;20033;-78
2023/03/08 09:44:42;;;;;;;7.80;4.20;;;;;;;12.05;44.88;94207.59;5049812;28;20040;-77
2023/03/08 09:47:29;;;;;;;6.95;4.35;;;;;;;12.04;44.86;94195.53;5049263;28;20447;-78
2023/03/08 09:50:03;;;;;;;6.38;4.20;;;;;;;11.62;44.69;94097.28;5050822;28;20033;-78
2023/03/08 09:52:39;;;;;;;7.95;4.53;;;;;;;11.94;44.10;94115.91;5033623;28;20490;-78
2023/03/08 09:55:09;;;;;;;7.60;4.88;;;;;;;12.56;44.39;94199.94;5049323;28;20055;-78
2023/03/08 09:57:36;;;;;;;11.48;5.22;;;;;;;12.10;43.50;94104.78;5049481;28;20426;-78
2023/03/08 10:00:09;;;;;;;9.48;5.07;;;;;;;11.78;44.43;94103.56;5032964;28;20056;-78
2023/03/08 10:02:45;;;;;;;8.88;5.18;;;;;;;12.06;44.10;94132.91;5054814;28;20033;-78
2023/03/08 10:05:23;;;;;;;10.02;5.32;;;;;;;12.51;43.33;94184.00;5057067;28;20036;-78
2023/03/08 10:08:07;;;;;;;7.95;4.55;;;;;;;12.10;42.51;94115.22;5056161;28;20064;-78
2023/03/08 10:10:35;;;;;;;10.32;4.60;;;;;;;12.34;43.69;94179.63;5038805;28;20410;-78
2023/03/08 10:13:25;;;;;;;12.98;4.40;;;;;;;12.34;43.60;94179.63;5055950;28;20064;-78
2023/03/08 10:15:52;;;;;;;7.40;4.63;;;;;;;11.95;43.35;94089.75;5055703;28;20446;-78
2023/03/08 10:18:25;;;;;;;7.85;4.95;;;;;;;12.65;42.98;94183.41;5055670;28;20108;-78
2023/03/08 10:20:51;;;;;;;8.80;4.45;;;;;;;12.18;42.94;94120.47;5055817;28;20108;-78
2023/03/08 10:23:20;;;;;;;8.27;5.00;;;;;;;12.49;43.05;94178.09;5056675;28;20039;-77
2023/03/08 10:25:46;;;;;;;7.82;5.15;;;;;;;12.22;43.09;94155.63;5055705;28;20043;-78
2023/03/08 10:28:16;;;;;;;10.70;5.47;;;;;;;11.73;43.09;94072.81;5056874;28;20095;-78
2023/03/08 10:30:57;;;;;;;10.82;5.20;;;;;;;12.05;42.89;94102.66;5057206;28;20446;-78
2023/03/08 10:33:23;;;;;;;8.13;5.28;;;;;;;12.00;43.20;94095.28;5055731;28;20147;-78
2023/03/08 10:35:52;;;;;;;10.88;5.35;;;;;;;12.35;43.32;94182.09;5056618;28;20032;-78
2023/03/08 10:38:18;;;;;;;13.60;6.30;;;;;;;12.37;43.60;94172.34;5056928;28;20037;-78
2023/03/08 10:40:43;;;;;;;8.82;5.43;;;;;;;12.36;43.13;94177.69;5055768;28;20491;-78
2023/03/08 10:43:25;;;;;;;14.52;5.65;;;;;;;12.27;42.93;94138.56;5057411;28;20095;-78
2023/03/08 10:46:03;;;;;;;11.50;5.28;;;;;;;11.71;43.21;94056.53;5055919;28;20556;-78
2023/03/08 10:48:28;;;;;;;11.73;5.68;;;;;;;11.58;43.36;94056.09;5057428;28;20086;-78
2023/03/08 10:51:02;;;;;;;10.18;5.80;;;;;;;11.58;43.57;94058.69;5057093;28;20485;-78
2023/03/08 10:53:28;;;;;;;13.10;7.78;;;;;;;12.27;43.44;94164.63;5055814;28;20029;-77
2023/03/08 10:55:55;;;;;;;10.45;6.25;;;;;;;11.90;43.42;94083.38;5056479;28;20112;-78
2023/03/08 10:58:37;;;;;;;12.90;5.82;;;;;;;11.92;43.15;94071.81;5055420;28;20053;-78
2023/03/08 11:01:05;;;;;;;10.27;6.20;;;;;;;11.81;43.93;94070.25;5056720;28;20029;-78
2023/03/08 11:03:32;;;;;;;11.43;6.07;;;;;;;11.49;44.27;94044.81;5055762;28;20052;-77
2023/03/08 11:05:59;;;;;;;10.13;6.30;;;;;;;11.44;44.53;94025.44;5038826;28;20036;-79
2023/03/08 11:08:30;;;;;;;8.85;5.57;;;;;;;12.35;44.73;94140.41;5056965;28;20087;-78
2023/03/08 11:11:13;;;;;;;12.55;6.22;;;;;;;12.14;44.08;94074.88;5055408;28;20040;-78
2023/03/08 11:13:41;;;;;;;8.48;5.68;;;;;;;12.50;44.15;94138.06;5054751;28;20076;-78
2023/03/08 11:16:34;;;;;;;12.70;5.72;;;;;;;12.84;43.55;94126.78;5052346;28;20105;-78
2023/03/08 11:19:36;;;;;;;11.15;5.75;;;;;;;12.78;43.27;94123.03;5053433;28;20475;-78
2023/03/08 11:22:27;;;;;;;10.95;5.20;;;;;;;12.27;43.49;94038.81;5052251;28;20124;-78
2023/03/08 11:25:10;;;;;;;8.88;5.05;;;;;;;13.11;42.03;94126.56;5052049;28;20622;-78
2023/03/08 11:27:44;;;;;;;9.52;5.05;;;;;;;13.28;41.65;94117.00;5053407;28;20037;-78
2023/03/08 11:30:16;;;;;;;8.77;5.20;;;;;;;13.27;41.82;94094.53;5053343;28;20037;-78
2023/03/08 11:33:09;;;;;;;11.07;5.75;;;;;;;13.53;41.29;94094.38;5051888;28;20029;-78
2023/03/08 11:35:42;;;;;;;11.05;5.50;;;;;;;13.06;40.10;93997.66;5051984;28;20041;-78